Time;durP1;ratioP1;P1;durP2;ratioP2;P2;SDS_P1;SDS_P2;PMS_P1;PMS_P2;Temp;Humidity;BMP_temperature;BMP_pressure;BME280_temperature;BME280_humidity;BME280_pressure;Samples;Min_cycle;Max_cycle;Signal;HPM_P1;HPM_P2
2021/06/30 00:04:20;;;;;;;;;39.25;35.25;;;;;;;;8602319;41;11246;-62
2021/06/30 00:10:26;;;;;;;;;32.25;31.00;;;;;;;;8607519;41;11112;-63
2021/06/30 00:16:33;;;;;;;;;41.00;39.50;;;;;;;;8584570;41;11028;-62
2021/06/30 00:22:40;;;;;;;;;36.75;31.25;;;;;;;;8581910;41;11006;-64
2021/06/30 00:28:47;;;;;;;;;33.75;32.50;;;;;;;;8582896;41;11224;-63
2021/06/30 00:34:54;;;;;;;;;44.25;38.00;;;;;;;;8585766;41;11335;-64
2021/06/30 00:41:01;;;;;;;;;43.25;36.50;;;;;;;;8605207;41;11319;-64
2021/06/30 00:47:08;;;;;;;;;37.75;36.00;;;;;;;;8606129;41;10929;-63
2021/06/30 00:53:15;;;;;;;;;38.00;34.75;;;;;;;;8605049;41;11124;-62
2021/06/30 00:59:22;;;;;;;;;41.25;37.75;;;;;;;;8605025;41;10993;-63
2021/06/30 01:05:29;;;;;;;;;35.00;33.25;;;;;;;;8603234;41;11703;-64
2021/06/30 01:11:37;;;;;;;;;36.33;34.33;;;;;;;;8604957;41;11034;-63
2021/06/30 01:17:46;;;;;;;;;37.75;34.25;;;;;;;;8603988;41;11671;-64
2021/06/30 01:23:53;;;;;;;;;32.00;25.75;;;;;;;;8604258;41;11144;-63
2021/06/30 01:30:00;;;;;;;;;34.00;33.00;;;;;;;;8593315;41;11281;-64
2021/06/30 01:36:08;;;;;;;;;35.00;32.50;;;;;;;;8584675;41;11436;-63
2021/06/30 01:42:15;;;;;;;;;44.00;39.75;;;;;;;;8584460;41;11327;-63
2021/06/30 01:48:22;;;;;;;;;34.50;34.50;;;;;;;;8584417;41;11158;-63
2021/06/30 01:54:29;;;;;;;;;41.75;38.00;;;;;;;;8597695;41;11058;-62
2021/06/30 02:00:36;;;;;;;;;37.00;33.00;;;;;;;;8606726;41;11084;-63
2021/06/30 02:06:44;;;;;;;;;35.25;31.75;;;;;;;;8590614;41;11400;-63
2021/06/30 02:12:52;;;;;;;;;36.00;33.33;;;;;;;;8585012;41;11037;-64
2021/06/30 02:19:04;;;;;;;;;36.75;34.75;;;;;;;;8589419;41;11143;-63
2021/06/30 02:25:14;;;;;;;;;35.67;35.33;;;;;;;;8607526;41;10680;-64
2021/06/30 02:31:22;;;;;;;;;45.00;37.00;;;;;;;;8608583;41;11370;-63
2021/06/30 02:37:29;;;;;;;;;45.67;40.00;;;;;;;;8605817;41;10301;-64
2021/06/30 02:43:36;;;;;;;;;37.33;35.67;;;;;;;;8605529;41;10677;-63
2021/06/30 02:49:43;;;;;;;;;48.00;40.00;;;;;;;;8606821;41;10248;-63
2021/06/30 02:55:50;;;;;;;;;44.67;39.00;;;;;;;;8606761;41;11059;-63
2021/06/30 03:01:58;;;;;;;;;49.67;41.67;;;;;;;;8606055;41;10429;-64
2021/06/30 03:08:04;;;;;;;;;46.00;39.00;;;;;;;;8594976;41;10978;-63
2021/06/30 03:14:11;;;;;;;;;45.00;40.00;;;;;;;;8583371;41;11142;-65
2021/06/30 03:20:18;;;;;;;;;54.00;41.33;;;;;;;;8583258;41;10242;-63
2021/06/30 03:26:25;;;;;;;;;51.33;43.00;;;;;;;;8584069;41;10286;-63
2021/06/30 03:32:32;;;;;;;;;49.33;44.00;;;;;;;;8603343;41;10264;-63
2021/06/30 03:38:39;;;;;;;;;56.67;44.67;;;;;;;;8607482;41;10199;-64
2021/06/30 03:44:46;;;;;;;;;52.67;43.33;;;;;;;;8605975;41;10958;-64
2021/06/30 03:50:52;;;;;;;;;48.33;42.67;;;;;;;;8595781;41;10297;-64
2021/06/30 03:56:59;;;;;;;;;56.33;46.67;;;;;;;;8583641;41;10263;-63
2021/06/30 04:03:06;;;;;;;;;54.00;44.75;;;;;;;;9548524;24;11417;-60
2021/06/30 04:09:16;;;;;;;;;51.75;42.75;;;;;;;;8615874;41;11512;-62
2021/06/30 04:15:23;;;;;;;;;57.33;46.33;;;;;;;;8624998;41;10993;-61
2021/06/30 04:21:29;;;;;;;;;56.67;45.67;;;;;;;;8597453;41;10940;-62
2021/06/30 04:27:36;;;;;;;;;55.00;47.67;;;;;;;;8617776;41;10955;-63
2021/06/30 04:33:43;;;;;;;;;54.67;46.00;;;;;;;;8586689;41;11116;-61
2021/06/30 04:39:50;;;;;;;;;61.00;49.25;;;;;;;;8605883;41;12052;-61
2021/06/30 04:45:57;;;;;;;;;58.00;48.25;;;;;;;;8627461;41;11047;-61
2021/06/30 04:52:04;;;;;;;;;48.00;42.75;;;;;;;;8586244;41;11105;-62
2021/06/30 04:58:11;;;;;;;;;48.75;41.50;;;;;;;;8585330;41;11122;-63
2021/06/30 05:04:18;;;;;;;;;44.75;39.75;;;;;;;;8589899;41;11085;-63
2021/06/30 05:10:26;;;;;;;;;52.50;41.00;;;;;;;;8609067;41;11544;-62
2021/06/30 05:16:32;;;;;;;;;49.50;41.25;;;;;;;;8626974;41;11676;-63
2021/06/30 05:22:39;;;;;;;;;47.00;41.00;;;;;;;;8609877;41;10882;-61
2021/06/30 05:28:46;;;;;;;;;46.75;42.25;;;;;;;;8605599;41;11135;-61
2021/06/30 05:34:54;;;;;;;;;47.75;41.50;;;;;;;;8600224;41;10963;-62
2021/06/30 05:41:01;;;;;;;;;48.75;41.00;;;;;;;;8601704;41;11091;-62
2021/06/30 05:47:08;;;;;;;;;49.75;42.50;;;;;;;;8604599;41;10991;-63
2021/06/30 05:53:15;;;;;;;;;51.25;42.50;;;;;;;;8604605;41;11049;-62
2021/06/30 05:59:21;;;;;;;;;41.75;39.50;;;;;;;;8602995;41;10981;-62
2021/06/30 06:05:28;;;;;;;;;53.75;44.50;;;;;;;;8605144;41;10872;-62
2021/06/30 06:11:35;;;;;;;;;50.75;42.50;;;;;;;;8598675;41;10762;-62
2021/06/30 06:17:42;;;;;;;;;44.75;40.75;;;;;;;;8603475;41;11065;-63
2021/06/30 06:23:49;;;;;;;;;55.50;45.75;;;;;;;;8602698;41;10828;-62
2021/06/30 06:29:56;;;;;;;;;55.25;46.75;;;;;;;;8594500;41;11155;-61
2021/06/30 06:36:03;;;;;;;;;49.50;44.00;;;;;;;;8603224;41;11719;-61
2021/06/30 06:42:11;;;;;;;;;52.00;44.50;;;;;;;;8603717;41;10934;-61
2021/06/30 06:48:17;;;;;;;;;44.50;39.00;;;;;;;;8608720;41;10839;-63
2021/06/30 06:54:25;;;;;;;;;51.25;43.25;;;;;;;;8606616;41;11006;-61
2021/06/30 07:00:32;;;;;;;;;50.75;40.50;;;;;;;;8599757;41;11410;-66
2021/06/30 07:06:39;;;;;;;;;44.00;39.75;;;;;;;;8602525;41;10790;-64
2021/06/30 07:12:45;;;;;;;;;45.75;39.75;;;;;;;;8600722;41;10927;-64
2021/06/30 07:18:52;;;;;;;;;50.75;43.00;;;;;;;;8606509;41;10808;-64
2021/06/30 07:24:59;;;;;;;;;56.25;47.50;;;;;;;;8603849;41;11219;-63
2021/06/30 07:31:01;;;;;;;;;49.75;43.00;;;;;;;;8605755;41;10791;-62
2021/06/30 07:37:03;;;;;;;;;51.00;43.50;;;;;;;;8603560;41;10719;-62
2021/06/30 07:43:10;;;;;;;;;49.25;41.75;;;;;;;;8602182;41;10783;-62
2021/06/30 07:49:12;;;;;;;;;43.50;39.50;;;;;;;;8599809;41;10807;-63
2021/06/30 07:55:15;;;;;;;;;48.50;42.25;;;;;;;;8601394;41;10757;-62
2021/06/30 08:01:17;;;;;;;;;46.50;38.75;;;;;;;;8609501;41;11041;-63
2021/06/30 08:07:21;;;;;;;;;47.25;40.25;;;;;;;;8605312;41;10718;-62
2021/06/30 08:13:23;;;;;;;;;46.00;40.50;;;;;;;;8600603;41;10811;-63
2021/06/30 08:19:25;;;;;;;;;55.50;47.25;;;;;;;;8601493;41;11185;-63
2021/06/30 08:25:27;;;;;;;;;47.25;41.00;;;;;;;;8597675;41;10747;-61
2021/06/30 08:31:29;;;;;;;;;53.75;44.25;;;;;;;;8606514;41;10927;-61
2021/06/30 08:37:38;;;;;;;;;47.75;41.00;;;;;;;;8601132;41;11118;-62
2021/06/30 08:43:40;;;;;;;;;47.00;41.00;;;;;;;;8598802;41;10768;-64
2021/06/30 08:49:44;;;;;;;;;47.00;40.50;;;;;;;;8598115;41;10801;-63
2021/06/30 08:55:46;;;;;;;;;40.50;36.75;;;;;;;;8608180;41;10748;-62
2021/06/30 09:01:48;;;;;;;;;43.75;39.25;;;;;;;;8612778;41;10940;-62
2021/06/30 09:07:51;;;;;;;;;50.75;40.00;;;;;;;;8612172;41;10801;-62
2021/06/30 09:14:10;;;;;;;;;54.00;45.50;;;;;;;;8614104;41;10937;-63
2021/06/30 09:20:12;;;;;;;;;53.75;44.75;;;;;;;;8606616;41;11368;-65
2021/06/30 09:26:14;;;;;;;;;53.50;45.00;;;;;;;;8600422;41;10954;-63
2021/06/30 09:32:17;;;;;;;;;41.50;36.50;;;;;;;;8603479;41;10851;-64
2021/06/30 09:38:31;;;;;;;;;39.25;36.00;;;;;;;;8599307;41;10802;-64
2021/06/30 09:44:34;;;;;;;;;41.75;38.00;;;;;;;;8609361;41;10779;-62
2021/06/30 09:50:38;;;;;;;;;44.50;37.00;;;;;;;;8606871;41;10805;-63
2021/06/30 09:57:13;;;;;;;;;46.50;40.00;;;;;;;;8600547;41;10768;-64
2021/06/30 10:03:38;;;;;;;;;32.00;32.00;;;;;;;;8601424;41;10752;-63
2021/06/30 10:09:59;;;;;;;;;35.50;34.25;;;;;;;;8603374;41;10809;-64
2021/06/30 10:16:02;;;;;;;;;40.25;37.00;;;;;;;;8605320;41;10783;-63
2021/06/30 10:22:06;;;;;;;;;36.75;33.50;;;;;;;;8597656;41;10915;-65
2021/06/30 10:28:09;;;;;;;;;44.75;39.00;;;;;;;;8598141;41;11369;-64
2021/06/30 10:34:13;;;;;;;;;41.25;37.50;;;;;;;;8601277;41;10933;-63
2021/06/30 10:40:16;;;;;;;;;42.00;39.00;;;;;;;;8610494;41;10914;-63
2021/06/30 10:46:25;;;;;;;;;38.00;34.75;;;;;;;;8604383;41;10755;-63
2021/06/30 10:52:27;;;;;;;;;38.50;36.75;;;;;;;;8596531;41;10774;-62
2021/06/30 10:58:31;;;;;;;;;41.50;38.00;;;;;;;;8602618;41;10730;-61
2021/06/30 11:04:32;;;;;;;;;37.25;35.50;;;;;;;;8605926;41;10979;-64
2021/06/30 11:10:34;;;;;;;;;34.75;34.50;;;;;;;;8598535;41;10914;-63
2021/06/30 11:16:36;;;;;;;;;36.00;35.25;;;;;;;;8591254;41;10949;-62
2021/06/30 11:22:39;;;;;;;;;41.00;37.00;;;;;;;;8599539;41;10745;-64
2021/06/30 11:28:41;;;;;;;;;39.25;37.00;;;;;;;;8593068;41;11560;-63
2021/06/30 11:34:43;;;;;;;;;41.00;36.00;;;;;;;;8613992;41;11558;-64
2021/06/30 11:41:09;;;;;;;;;38.25;36.00;;;;;;;;8622672;41;10693;-63
2021/06/30 11:47:12;;;;;;;;;39.50;37.00;;;;;;;;8595397;41;10875;-62
2021/06/30 11:53:14;;;;;;;;;41.50;37.25;;;;;;;;8583749;41;10776;-63
2021/06/30 11:59:23;;;;;;;;;37.25;35.25;;;;;;;;8603806;41;10964;-62
2021/06/30 12:05:26;;;;;;;;;35.75;34.75;;;;;;;;8601400;41;11404;-63
2021/06/30 12:11:33;;;;;;;;;39.50;37.00;;;;;;;;8607932;41;11016;-64
2021/06/30 12:17:36;;;;;;;;;35.00;34.25;;;;;;;;8601768;41;11528;-62
2021/06/30 12:23:38;;;;;;;;;40.25;36.25;;;;;;;;8599728;41;10963;-64
2021/06/30 12:29:41;;;;;;;;;36.50;35.25;;;;;;;;8601079;41;10703;-64
2021/06/30 12:35:51;;;;;;;;;36.00;35.00;;;;;;;;8596229;41;10754;-64
2021/06/30 12:41:54;;;;;;;;;40.25;37.00;;;;;;;;8601891;41;10978;-61
2021/06/30 12:48:03;;;;;;;;;34.75;34.00;;;;;;;;8600146;41;11060;-65
2021/06/30 12:54:05;;;;;;;;;35.25;33.75;;;;;;;;8620884;41;10698;-63
2021/06/30 13:00:07;;;;;;;;;27.75;27.75;;;;;;;;8606066;41;10753;-63
2021/06/30 13:06:31;;;;;;;;;42.50;37.75;;;;;;;;8606045;41;10685;-62
2021/06/30 13:12:33;;;;;;;;;29.50;28.00;;;;;;;;8611500;41;12018;-63
2021/06/30 13:18:48;;;;;;;;;35.75;32.75;;;;;;;;8620313;41;11252;-61
2021/06/30 13:24:52;;;;;;;;;29.25;29.25;;;;;;;;8605483;41;10721;-63
2021/06/30 13:37:15;;;;;;;;;32.75;30.25;;;;;;;;8613774;41;10920;-63
2021/06/30 13:43:17;;;;;;;;;32.25;30.00;;;;;;;;8632974;41;10699;-60
2021/06/30 13:49:20;;;;;;;;;31.75;31.25;;;;;;;;8630491;41;10732;-62
2021/06/30 13:55:24;;;;;;;;;39.75;35.75;;;;;;;;8606551;41;10908;-64
2021/06/30 14:01:26;;;;;;;;;32.25;32.00;;;;;;;;8606182;41;10712;-62
2021/06/30 14:07:28;;;;;;;;;32.75;31.50;;;;;;;;8596319;41;10884;-63
2021/06/30 14:13:31;;;;;;;;;37.25;33.25;;;;;;;;8585823;41;10714;-62
2021/06/30 14:19:33;;;;;;;;;33.75;32.25;;;;;;;;8589871;41;10725;-62
2021/06/30 14:25:35;;;;;;;;;31.50;31.50;;;;;;;;8603101;41;11280;-62
2021/06/30 14:31:43;;;;;;;;;31.50;29.50;;;;;;;;8609036;41;10696;-62
2021/06/30 14:37:46;;;;;;;;;33.50;32.25;;;;;;;;8608333;41;10848;-62
2021/06/30 14:43:48;;;;;;;;;32.00;31.25;;;;;;;;8603265;41;10650;-63
2021/06/30 14:49:49;;;;;;;;;33.25;31.75;;;;;;;;8592014;41;10734;-62
2021/06/30 14:55:51;;;;;;;;;26.00;25.75;;;;;;;;8587300;41;10656;-62
2021/06/30 15:01:54;;;;;;;;;32.75;29.25;;;;;;;;8603689;41;10800;-62
2021/06/30 15:07:56;;;;;;;;;33.50;30.50;;;;;;;;8607103;41;10736;-61
2021/06/30 15:14:00;;;;;;;;;39.00;35.25;;;;;;;;8608308;41;10822;-63
2021/06/30 15:20:05;;;;;;;;;31.25;31.00;;;;;;;;8590946;41;10740;-63
2021/06/30 15:26:07;;;;;;;;;31.50;31.50;;;;;;;;8590568;41;10786;-65
2021/06/30 15:32:09;;;;;;;;;43.50;37.00;;;;;;;;8598410;41;10863;-67
2021/06/30 15:38:12;;;;;;;;;38.50;36.25;;;;;;;;8595063;41;10772;-66
2021/06/30 15:44:15;;;;;;;;;34.75;34.00;;;;;;;;8581808;41;10746;-66
2021/06/30 15:50:21;;;;;;;;;32.50;32.50;;;;;;;;8427031;41;10000818;-65
2021/06/30 15:56:36;;;;;;;;;32.25;30.25;;;;;;;;8585517;41;11542;-66
2021/06/30 16:02:40;;;;;;;;;31.25;29.25;;;;;;;;8589809;41;10732;-67
2021/06/30 16:08:41;;;;;;;;;37.00;35.75;;;;;;;;8607833;41;10792;-66
2021/06/30 16:14:43;;;;;;;;;34.25;30.75;;;;;;;;8608492;41;10960;-66
2021/06/30 16:20:46;;;;;;;;;32.00;29.25;;;;;;;;8606920;41;10967;-66
2021/06/30 16:26:48;;;;;;;;;35.50;31.50;;;;;;;;8602716;41;10979;-66
2021/06/30 16:32:50;;;;;;;;;24.25;22.00;;;;;;;;8583354;41;10985;-67
2021/06/30 16:38:52;;;;;;;;;39.00;35.50;;;;;;;;8583838;41;10771;-67
2021/06/30 16:44:54;;;;;;;;;33.75;30.50;;;;;;;;8583681;41;11350;-65
2021/06/30 16:50:56;;;;;;;;;34.75;34.50;;;;;;;;8583259;41;10806;-66
2021/06/30 16:56:58;;;;;;;;;42.00;36.25;;;;;;;;8596682;41;10769;-64
2021/06/30 17:03:02;;;;;;;;;33.25;31.00;;;;;;;;8607194;41;11033;-67
2021/06/30 17:09:09;;;;;;;;;26.25;26.25;;;;;;;;8609383;41;10740;-65
2021/06/30 17:15:12;;;;;;;;;30.25;29.50;;;;;;;;8609888;41;10746;-65
2021/06/30 17:21:15;;;;;;;;;30.25;29.00;;;;;;;;8610638;41;10988;-65
2021/06/30 17:27:17;;;;;;;;;33.00;30.50;;;;;;;;8609798;41;10778;-66
2021/06/30 17:33:20;;;;;;;;;40.25;35.00;;;;;;;;8609376;41;10680;-67
2021/06/30 17:39:22;;;;;;;;;30.25;27.75;;;;;;;;8608685;41;10732;-66
2021/06/30 17:45:32;;;;;;;;;31.50;30.25;;;;;;;;8609948;41;10986;-65
2021/06/30 17:51:34;;;;;;;;;26.75;26.75;;;;;;;;8586713;41;10908;-65
2021/06/30 17:57:36;;;;;;;;;40.00;33.75;;;;;;;;8586797;41;10961;-66
2021/06/30 18:03:38;;;;;;;;;32.25;31.75;;;;;;;;8585752;41;10734;-66
2021/06/30 18:09:40;;;;;;;;;39.75;36.75;;;;;;;;8586801;41;11207;-65
2021/06/30 18:15:43;;;;;;;;;39.75;37.25;;;;;;;;8585908;41;11562;-66
2021/06/30 18:21:45;;;;;;;;;37.00;33.50;;;;;;;;8594673;41;10741;-66
2021/06/30 18:27:47;;;;;;;;;31.75;30.75;;;;;;;;8609676;41;11496;-64
2021/06/30 18:33:51;;;;;;;;;34.00;34.00;;;;;;;;8602395;41;10768;-65
2021/06/30 18:39:54;;;;;;;;;34.25;32.00;;;;;;;;8585749;41;10866;-65
2021/06/30 18:45:58;;;;;;;;;32.25;30.00;;;;;;;;8604642;41;10754;-65
2021/06/30 18:52:00;;;;;;;;;36.25;34.75;;;;;;;;8592681;41;10963;-64
2021/06/30 18:58:02;;;;;;;;;38.25;35.75;;;;;;;;8585845;41;10731;-65
2021/06/30 19:04:04;;;;;;;;;32.00;28.75;;;;;;;;8585387;41;10740;-65
2021/06/30 19:10:09;;;;;;;;;32.75;32.75;;;;;;;;8585253;41;10760;-66
2021/06/30 19:16:13;;;;;;;;;30.25;30.25;;;;;;;;8585230;41;10941;-65
2021/06/30 19:22:15;;;;;;;;;28.25;28.25;;;;;;;;8586080;41;10897;-64
2021/06/30 19:28:17;;;;;;;;;34.00;34.00;;;;;;;;8585137;41;10732;-64
2021/06/30 19:34:19;;;;;;;;;35.25;34.25;;;;;;;;8604968;41;10993;-65
2021/06/30 19:40:22;;;;;;;;;41.50;36.25;;;;;;;;8608953;41;11731;-64
2021/06/30 19:46:25;;;;;;;;;33.25;33.25;;;;;;;;8607025;41;10840;-64
2021/06/30 19:58:41;;;;;;;;;37.75;34.25;;;;;;;;8584011;41;11046;-65
2021/06/30 20:04:43;;;;;;;;;38.25;34.50;;;;;;;;8585066;41;10723;-64
2021/06/30 20:10:46;;;;;;;;;34.75;32.00;;;;;;;;8584541;41;10762;-64
2021/06/30 20:16:49;;;;;;;;;33.75;33.75;;;;;;;;8584224;41;10793;-65
2021/06/30 20:22:51;;;;;;;;;44.50;37.75;;;;;;;;8583920;41;10724;-66
2021/06/30 20:28:56;;;;;;;;;44.50;40.00;;;;;;;;8583714;41;11099;-65
2021/06/30 20:34:58;;;;;;;;;37.75;37.00;;;;;;;;8588450;41;10712;-66
2021/06/30 20:40:59;;;;;;;;;35.25;35.25;;;;;;;;8615306;41;10727;-66
2021/06/30 20:47:01;;;;;;;;;33.00;32.50;;;;;;;;8614668;41;11347;-65
2021/06/30 20:53:04;;;;;;;;;40.00;37.50;;;;;;;;8615248;41;10999;-65
2021/06/30 20:59:07;;;;;;;;;39.00;37.00;;;;;;;;8614822;41;10789;-65
2021/06/30 21:05:21;;;;;;;;;36.00;35.00;;;;;;;;8615494;41;10818;-66
2021/06/30 21:11:23;;;;;;;;;48.50;40.50;;;;;;;;8614224;41;10950;-65
2021/06/30 21:17:25;;;;;;;;;31.00;28.25;;;;;;;;8614694;41;10872;-65
2021/06/30 21:23:28;;;;;;;;;41.50;38.00;;;;;;;;8614543;41;10785;-65
2021/06/30 21:29:31;;;;;;;;;36.25;32.25;;;;;;;;8612497;41;10818;-65
2021/06/30 21:35:33;;;;;;;;;36.00;34.25;;;;;;;;8613052;41;11019;-64
2021/06/30 21:41:37;;;;;;;;;35.50;33.25;;;;;;;;8613747;41;10974;-64
2021/06/30 21:47:41;;;;;;;;;44.00;33.00;;;;;;;;8611136;41;10837;-64
2021/06/30 21:53:43;;;;;;;;;41.50;38.25;;;;;;;;8608638;41;11867;-65
2021/06/30 21:59:45;;;;;;;;;39.00;37.25;;;;;;;;8606548;41;10940;-65
2021/06/30 22:05:47;;;;;;;;;32.75;30.25;;;;;;;;8586097;41;10904;-64
2021/06/30 22:11:49;;;;;;;;;31.75;31.75;;;;;;;;8586191;41;10772;-64
2021/06/30 22:17:51;;;;;;;;;30.00;30.00;;;;;;;;8586757;41;11412;-64
2021/06/30 22:23:53;;;;;;;;;33.75;31.50;;;;;;;;8585917;41;10777;-64
2021/06/30 22:29:56;;;;;;;;;33.50;31.00;;;;;;;;8585575;41;11228;-65
2021/06/30 22:35:58;;;;;;;;;32.50;31.75;;;;;;;;8586888;41;10914;-65
2021/06/30 22:42:00;;;;;;;;;32.00;30.00;;;;;;;;8585855;41;10734;-64
2021/06/30 22:48:03;;;;;;;;;31.25;28.25;;;;;;;;8585275;41;10762;-65
2021/06/30 22:54:05;;;;;;;;;30.00;28.00;;;;;;;;8586268;41;10717;-65
2021/06/30 23:00:10;;;;;;;;;34.50;29.50;;;;;;;;8602801;41;10908;-65
2021/06/30 23:06:12;;;;;;;;;25.00;25.00;;;;;;;;8609414;41;10767;-65
2021/06/30 23:12:14;;;;;;;;;34.25;33.00;;;;;;;;8608702;41;10981;-64
2021/06/30 23:18:16;;;;;;;;;29.75;26.50;;;;;;;;8608206;41;10791;-65
2021/06/30 23:24:18;;;;;;;;;28.75;28.75;;;;;;;;8608228;41;10754;-65
2021/06/30 23:30:20;;;;;;;;;26.50;23.00;;;;;;;;8592902;41;10855;-65
2021/06/30 23:36:28;;;;;;;;;29.00;27.00;;;;;;;;8584582;41;10959;-65
2021/06/30 23:42:46;;;;;;;;;23.00;22.50;;;;;;;;8259552;41;10012002;-64
2021/06/30 23:48:48;;;;;;;;;25.20;22.40;;;;;;;;2260341;41;10001794;-65
2021/06/30 23:54:50;;;;;;;;;28.25;27.50;;;;;;;;8575598;41;11048;-66
